sensor_id;sensor_type;location;lat;lon;timestamp;pressure;altitude;pressure_sealevel;temperature;humidity
22755;BME280;11544;42.020;23.094;2023-04-29T00:01:39;97243.22;;;8.60;54.80
22755;BME280;11544;42.020;23.094;2023-04-29T00:04:06;97249.91;;;8.36;56.33
22755;BME280;11544;42.020;23.094;2023-04-29T00:06:33;97246.13;;;8.14;56.14
22755;BME280;11544;42.020;23.094;2023-04-29T00:09:00;97245.69;;;8.32;54.84
22755;BME280;11544;42.020;23.094;2023-04-29T00:11:27;97248.13;;;8.04;55.04
22755;BME280;11544;42.020;23.094;2023-04-29T00:13:53;97244.66;;;8.38;54.03
22755;BME280;11544;42.020;23.094;2023-04-29T00:16:20;97246.63;;;7.94;55.91
22755;BME280;11544;42.020;23.094;2023-04-29T00:18:47;97250.84;;;7.98;56.86
22755;BME280;11544;42.020;23.094;2023-04-29T00:21:14;97245.50;;;8.04;56.96
22755;BME280;11544;42.020;23.094;2023-04-29T00:23:41;97248.31;;;8.29;57.36
22755;BME280;11544;42.020;23.094;2023-04-29T00:26:08;97244.25;;;8.20;57.99
22755;BME280;11544;42.020;23.094;2023-04-29T00:28:35;97252.25;;;7.75;60.13
22755;BME280;11544;42.020;23.094;2023-04-29T00:31:02;97244.81;;;7.60;60.37
22755;BME280;11544;42.020;23.094;2023-04-29T00:33:29;97249.16;;;7.59;61.82
22755;BME280;11544;42.020;23.094;2023-04-29T00:35:56;97249.28;;;7.53;62.07
22755;BME280;11544;42.020;23.094;2023-04-29T00:38:23;97243.34;;;7.48;61.82
22755;BME280;11544;42.020;23.094;2023-04-29T00:40:50;97248.34;;;7.57;60.56
22755;BME280;11544;42.020;23.094;2023-04-29T00:43:17;97252.22;;;7.77;58.34
22755;BME280;11544;42.020;23.094;2023-04-29T00:45:44;97245.34;;;8.10;57.58
22755;BME280;11544;42.020;23.094;2023-04-29T00:48:21;97243.75;;;8.40;56.71
22755;BME280;11544;42.020;23.094;2023-04-29T00:50:48;97237.66;;;7.71;57.58
22755;BME280;11544;42.020;23.094;2023-04-29T00:53:17;97240.97;;;7.76;58.09
22755;BME280;11544;42.020;23.094;2023-04-29T00:55:45;97250.00;;;7.61;59.16
22755;BME280;11544;42.020;23.094;2023-04-29T00:58:13;97240.66;;;7.53;59.13
22755;BME280;11544;42.020;23.094;2023-04-29T01:00:40;97245.31;;;7.77;58.97
22755;BME280;11544;42.020;23.094;2023-04-29T01:03:09;97240.78;;;7.84;58.58
22755;BME280;11544;42.020;23.094;2023-04-29T01:05:36;97243.16;;;7.57;58.02
22755;BME280;11544;42.020;23.094;2023-04-29T01:11:09;97240.84;;;7.45;59.39
22755;BME280;11544;42.020;23.094;2023-04-29T01:13:58;97240.47;;;7.60;57.69
22755;BME280;11544;42.020;23.094;2023-04-29T01:16:46;97239.31;;;7.74;57.46
22755;BME280;11544;42.020;23.094;2023-04-29T01:21:47;97233.16;;;7.78;56.84
22755;BME280;11544;42.020;23.094;2023-04-29T01:24:17;97245.84;;;7.14;58.04
22755;BME280;11544;42.020;23.094;2023-04-29T01:26:49;97244.81;;;7.61;58.61
22755;BME280;11544;42.020;23.094;2023-04-29T01:29:26;97241.91;;;7.36;58.61
22755;BME280;11544;42.020;23.094;2023-04-29T01:32:03;97249.47;;;7.84;57.42
22755;BME280;11544;42.020;23.094;2023-04-29T01:37:34;97255.50;;;7.07;60.15
22755;BME280;11544;42.020;23.094;2023-04-29T01:43:01;97256.88;;;7.62;58.96
22755;BME280;11544;42.020;23.094;2023-04-29T01:45:31;97254.94;;;7.33;59.44
22755;BME280;11544;42.020;23.094;2023-04-29T01:48:00;97257.44;;;6.97;60.65
22755;BME280;11544;42.020;23.094;2023-04-29T01:50:28;97259.19;;;7.37;61.10
22755;BME280;11544;42.020;23.094;2023-04-29T01:52:57;97261.81;;;6.94;62.60
22755;BME280;11544;42.020;23.094;2023-04-29T01:55:24;97264.13;;;7.08;63.48
22755;BME280;11544;42.020;23.094;2023-04-29T01:57:51;97270.13;;;6.66;66.46
22755;BME280;11544;42.020;23.094;2023-04-29T02:00:18;97274.28;;;7.18;65.36
22755;BME280;11544;42.020;23.094;2023-04-29T02:02:45;97263.47;;;6.96;65.53
22755;BME280;11544;42.020;23.094;2023-04-29T02:05:12;97266.69;;;7.09;66.47
22755;BME280;11544;42.020;23.094;2023-04-29T02:07:39;97265.31;;;6.91;65.90
22755;BME280;11544;42.020;23.094;2023-04-29T02:10:07;97269.31;;;7.06;66.05
22755;BME280;11544;42.020;23.094;2023-04-29T02:12:34;97264.25;;;7.02;66.43
22755;BME280;11544;42.020;23.094;2023-04-29T02:15:02;97260.25;;;7.27;66.34
22755;BME280;11544;42.020;23.094;2023-04-29T02:17:29;97260.06;;;6.94;66.09
22755;BME280;11544;42.020;23.094;2023-04-29T02:19:55;97254.75;;;7.00;67.99
22755;BME280;11544;42.020;23.094;2023-04-29T02:22:23;97257.44;;;6.52;68.05
22755;BME280;11544;42.020;23.094;2023-04-29T02:24:49;97250.22;;;7.12;67.17
22755;BME280;11544;42.020;23.094;2023-04-29T02:27:17;97238.72;;;7.24;65.22
22755;BME280;11544;42.020;23.094;2023-04-29T02:29:44;97243.53;;;7.42;64.40
22755;BME280;11544;42.020;23.094;2023-04-29T02:32:11;97242.81;;;7.34;64.17
22755;BME280;11544;42.020;23.094;2023-04-29T02:34:40;97252.09;;;6.62;66.90
22755;BME280;11544;42.020;23.094;2023-04-29T02:37:07;97244.19;;;6.68;67.21
22755;BME280;11544;42.020;23.094;2023-04-29T02:39:34;97252.06;;;7.07;66.85
22755;BME280;11544;42.020;23.094;2023-04-29T02:42:01;97246.41;;;7.28;63.86
22755;BME280;11544;42.020;23.094;2023-04-29T02:44:28;97253.38;;;6.84;65.23
22755;BME280;11544;42.020;23.094;2023-04-29T02:46:56;97247.25;;;6.88;64.07
22755;BME280;11544;42.020;23.094;2023-04-29T02:49:24;97239.66;;;6.77;65.18
22755;BME280;11544;42.020;23.094;2023-04-29T02:51:51;97247.31;;;6.85;65.86
22755;BME280;11544;42.020;23.094;2023-04-29T02:54:18;97247.69;;;7.09;64.64
22755;BME280;11544;42.020;23.094;2023-04-29T02:56:46;97249.22;;;7.17;64.45
22755;BME280;11544;42.020;23.094;2023-04-29T02:59:13;97253.34;;;6.39;67.06
22755;BME280;11544;42.020;23.094;2023-04-29T03:01:40;97246.75;;;6.23;66.66
22755;BME280;11544;42.020;23.094;2023-04-29T03:04:07;97251.69;;;6.82;66.93
22755;BME280;11544;42.020;23.094;2023-04-29T03:06:34;97250.09;;;6.76;66.92
22755;BME280;11544;42.020;23.094;2023-04-29T03:09:01;97257.78;;;6.32;68.34
22755;BME280;11544;42.020;23.094;2023-04-29T03:14:04;97265.25;;;6.00;71.02
22755;BME280;11544;42.020;23.094;2023-04-29T03:16:31;97265.06;;;6.10;71.08
22755;BME280;11544;42.020;23.094;2023-04-29T03:18:58;97267.31;;;6.30;70.29
22755;BME280;11544;42.020;23.094;2023-04-29T03:21:25;97268.97;;;6.34;69.45
22755;BME280;11544;42.020;23.094;2023-04-29T03:23:53;97270.94;;;6.22;72.54
22755;BME280;11544;42.020;23.094;2023-04-29T03:26:20;97272.63;;;6.23;71.86
22755;BME280;11544;42.020;23.094;2023-04-29T03:28:50;97273.31;;;6.32;71.88
22755;BME280;11544;42.020;23.094;2023-04-29T03:31:17;97283.81;;;6.26;74.29
22755;BME280;11544;42.020;23.094;2023-04-29T03:33:46;97287.09;;;6.34;74.08
22755;BME280;11544;42.020;23.094;2023-04-29T03:36:13;97277.03;;;6.19;71.27
22755;BME280;11544;42.020;23.094;2023-04-29T03:38:41;97289.78;;;5.72;74.72
22755;BME280;11544;42.020;23.094;2023-04-29T03:41:07;97296.28;;;6.00;73.25
22755;BME280;11544;42.020;23.094;2023-04-29T03:43:34;97302.44;;;5.94;74.74
22755;BME280;11544;42.020;23.094;2023-04-29T03:46:01;97303.31;;;5.91;75.07
22755;BME280;11544;42.020;23.094;2023-04-29T03:48:28;97311.75;;;5.44;74.82
22755;BME280;11544;42.020;23.094;2023-04-29T03:50:55;97311.59;;;6.15;75.16
22755;BME280;11544;42.020;23.094;2023-04-29T03:53:22;97306.44;;;6.13;74.05
22755;BME280;11544;42.020;23.094;2023-04-29T03:55:49;97304.72;;;6.12;74.52
22755;BME280;11544;42.020;23.094;2023-04-29T03:58:15;97319.13;;;6.29;74.07
22755;BME280;11544;42.020;23.094;2023-04-29T04:00:42;97316.06;;;6.05;74.58
22755;BME280;11544;42.020;23.094;2023-04-29T04:03:09;97311.69;;;6.09;75.87
22755;BME280;11544;42.020;23.094;2023-04-29T04:05:39;97324.06;;;5.88;75.19
22755;BME280;11544;42.020;23.094;2023-04-29T04:08:06;97321.19;;;6.08;76.14
22755;BME280;11544;42.020;23.094;2023-04-29T04:10:33;97319.66;;;5.93;76.54
22755;BME280;11544;42.020;23.094;2023-04-29T04:13:00;97323.16;;;5.89;76.63
22755;BME280;11544;42.020;23.094;2023-04-29T04:15:27;97319.69;;;6.46;75.36
22755;BME280;11544;42.020;23.094;2023-04-29T04:17:54;97316.34;;;6.41;72.93
22755;BME280;11544;42.020;23.094;2023-04-29T04:20:21;97318.59;;;6.07;74.86
22755;BME280;11544;42.020;23.094;2023-04-29T04:22:48;97310.31;;;6.41;74.88
22755;BME280;11544;42.020;23.094;2023-04-29T04:25:14;97312.13;;;6.34;74.99
22755;BME280;11544;42.020;23.094;2023-04-29T04:27:41;97319.06;;;6.32;75.14
22755;BME280;11544;42.020;23.094;2023-04-29T04:30:08;97331.88;;;6.41;75.40
22755;BME280;11544;42.020;23.094;2023-04-29T04:32:35;97325.69;;;6.48;74.80
22755;BME280;11544;42.020;23.094;2023-04-29T04:35:02;97326.84;;;6.30;76.16
22755;BME280;11544;42.020;23.094;2023-04-29T04:37:29;97326.00;;;6.79;73.97
22755;BME280;11544;42.020;23.094;2023-04-29T04:39:56;97326.50;;;6.98;71.94
22755;BME280;11544;42.020;23.094;2023-04-29T04:42:23;97321.06;;;6.67;73.59
22755;BME280;11544;42.020;23.094;2023-04-29T04:44:52;97321.22;;;6.58;72.75
22755;BME280;11544;42.020;23.094;2023-04-29T04:47:19;97312.53;;;7.06;71.09
22755;BME280;11544;42.020;23.094;2023-04-29T04:49:45;97306.09;;;6.83;72.73
22755;BME280;11544;42.020;23.094;2023-04-29T04:52:12;97305.75;;;6.53;73.99
22755;BME280;11544;42.020;23.094;2023-04-29T04:54:39;97310.09;;;6.98;73.96
22755;BME280;11544;42.020;23.094;2023-04-29T04:57:06;97309.19;;;6.55;73.76
22755;BME280;11544;42.020;23.094;2023-04-29T04:59:33;97310.50;;;6.78;74.12
22755;BME280;11544;42.020;23.094;2023-04-29T05:02:00;97313.22;;;6.70;73.92
22755;BME280;11544;42.020;23.094;2023-04-29T05:04:27;97320.66;;;7.32;73.97
22755;BME280;11544;42.020;23.094;2023-04-29T05:06:54;97312.38;;;7.13;71.50
22755;BME280;11544;42.020;23.094;2023-04-29T05:09:21;97318.59;;;7.48;70.86
22755;BME280;11544;42.020;23.094;2023-04-29T05:11:49;97312.75;;;7.37;70.98
22755;BME280;11544;42.020;23.094;2023-04-29T05:14:15;97308.75;;;7.62;70.43
22755;BME280;11544;42.020;23.094;2023-04-29T05:16:43;97308.34;;;7.81;70.44
22755;BME280;11544;42.020;23.094;2023-04-29T05:19:12;97300.53;;;7.43;69.78
22755;BME280;11544;42.020;23.094;2023-04-29T05:21:39;97302.41;;;7.76;68.66
22755;BME280;11544;42.020;23.094;2023-04-29T05:24:09;97305.75;;;7.81;68.88
22755;BME280;11544;42.020;23.094;2023-04-29T05:26:36;97310.84;;;7.85;69.41
22755;BME280;11544;42.020;23.094;2023-04-29T05:29:05;97308.81;;;7.98;66.73
22755;BME280;11544;42.020;23.094;2023-04-29T05:31:32;97304.22;;;7.72;68.92
22755;BME280;11544;42.020;23.094;2023-04-29T05:33:59;97302.53;;;8.07;66.76
22755;BME280;11544;42.020;23.094;2023-04-29T05:36:26;97304.31;;;8.05;68.58
22755;BME280;11544;42.020;23.094;2023-04-29T05:38:53;97301.78;;;7.66;69.43
22755;BME280;11544;42.020;23.094;2023-04-29T05:41:20;97300.34;;;7.53;70.75
22755;BME280;11544;42.020;23.094;2023-04-29T05:43:47;97304.31;;;7.68;71.46
22755;BME280;11544;42.020;23.094;2023-04-29T05:46:14;97301.06;;;7.97;71.34
22755;BME280;11544;42.020;23.094;2023-04-29T05:48:42;97298.47;;;7.97;71.65
22755;BME280;11544;42.020;23.094;2023-04-29T05:51:08;97302.50;;;8.46;70.13
22755;BME280;11544;42.020;23.094;2023-04-29T05:53:35;97306.66;;;8.53;67.80
22755;BME280;11544;42.020;23.094;2023-04-29T05:56:04;97308.09;;;8.96;67.27
22755;BME280;11544;42.020;23.094;2023-04-29T05:58:34;97297.16;;;9.74;64.46
22755;BME280;11544;42.020;23.094;2023-04-29T06:01:01;97293.59;;;9.78;63.20
22755;BME280;11544;42.020;23.094;2023-04-29T06:03:28;97290.66;;;9.31;63.78
22755;BME280;11544;42.020;23.094;2023-04-29T06:05:57;97286.81;;;9.99;62.40
22755;BME280;11544;42.020;23.094;2023-04-29T06:08:24;97285.78;;;10.33;60.90
22755;BME280;11544;42.020;23.094;2023-04-29T06:10:51;97280.78;;;9.99;62.62
22755;BME280;11544;42.020;23.094;2023-04-29T06:13:18;97276.41;;;11.02;58.68
22755;BME280;11544;42.020;23.094;2023-04-29T06:15:45;97264.78;;;10.88;58.49
22755;BME280;11544;42.020;23.094;2023-04-29T06:18:12;97265.50;;;12.28;54.74
22755;BME280;11544;42.020;23.094;2023-04-29T06:20:42;97263.41;;;11.94;53.65
22755;BME280;11544;42.020;23.094;2023-04-29T06:23:09;97257.88;;;12.01;53.47
22755;BME280;11544;42.020;23.094;2023-04-29T06:25:36;97255.56;;;11.94;53.75
22755;BME280;11544;42.020;23.094;2023-04-29T06:28:03;97253.44;;;12.66;51.35
22755;BME280;11544;42.020;23.094;2023-04-29T06:30:30;97254.19;;;12.27;51.49
22755;BME280;11544;42.020;23.094;2023-04-29T06:32:56;97253.22;;;12.10;51.38
22755;BME280;11544;42.020;23.094;2023-04-29T06:35:23;97236.38;;;12.58;51.41
22755;BME280;11544;42.020;23.094;2023-04-29T06:37:50;97232.78;;;11.97;50.28
22755;BME280;11544;42.020;23.094;2023-04-29T06:40:18;97223.69;;;12.48;50.10
22755;BME280;11544;42.020;23.094;2023-04-29T06:42:45;97223.94;;;12.83;48.64
22755;BME280;11544;42.020;23.094;2023-04-29T06:45:13;97217.19;;;12.78;47.09
22755;BME280;11544;42.020;23.094;2023-04-29T06:47:40;97212.53;;;12.84;47.90
22755;BME280;11544;42.020;23.094;2023-04-29T06:50:06;97207.75;;;12.55;48.90
22755;BME280;11544;42.020;23.094;2023-04-29T06:52:34;97196.94;;;14.47;46.04
22755;BME280;11544;42.020;23.094;2023-04-29T06:55:01;97190.00;;;14.46;54.62
22755;BME280;11544;42.020;23.094;2023-04-29T06:57:28;97193.94;;;15.69;48.79
22755;BME280;11544;42.020;23.094;2023-04-29T06:59:55;97200.84;;;14.57;44.90
22755;BME280;11544;42.020;23.094;2023-04-29T07:02:22;97201.16;;;13.97;45.47
22755;BME280;11544;42.020;23.094;2023-04-29T07:04:49;97200.88;;;15.22;44.20
22755;BME280;11544;42.020;23.094;2023-04-29T07:07:16;97197.78;;;14.48;45.62
22755;BME280;11544;42.020;23.094;2023-04-29T07:09:43;97189.66;;;13.46;46.04
22755;BME280;11544;42.020;23.094;2023-04-29T07:12:10;97195.88;;;13.99;47.74
22755;BME280;11544;42.020;23.094;2023-04-29T07:14:37;97177.59;;;14.83;45.25
22755;BME280;11544;42.020;23.094;2023-04-29T07:17:04;97179.53;;;14.11;46.94
22755;BME280;11544;42.020;23.094;2023-04-29T07:19:31;97175.22;;;15.28;44.47
22755;BME280;11544;42.020;23.094;2023-04-29T07:21:58;97171.66;;;15.44;44.43
22755;BME280;11544;42.020;23.094;2023-04-29T07:24:25;97166.47;;;14.95;45.03
22755;BME280;11544;42.020;23.094;2023-04-29T07:26:52;97163.25;;;15.54;44.99
22755;BME280;11544;42.020;23.094;2023-04-29T07:29:19;97160.03;;;15.64;45.17
22755;BME280;11544;42.020;23.094;2023-04-29T07:31:47;97161.66;;;15.35;45.66
22755;BME280;11544;42.020;23.094;2023-04-29T07:34:13;97158.63;;;16.05;46.77
22755;BME280;11544;42.020;23.094;2023-04-29T07:36:40;97159.53;;;15.42;47.10
22755;BME280;11544;42.020;23.094;2023-04-29T07:39:07;97151.97;;;15.83;46.28
22755;BME280;11544;42.020;23.094;2023-04-29T07:41:36;97153.28;;;15.29;47.60
22755;BME280;11544;42.020;23.094;2023-04-29T07:44:03;97143.97;;;16.45;47.25
22755;BME280;11544;42.020;23.094;2023-04-29T07:46:30;97144.47;;;16.22;46.00
22755;BME280;11544;42.020;23.094;2023-04-29T07:48:57;97142.09;;;16.76;47.26
22755;BME280;11544;42.020;23.094;2023-04-29T07:51:29;97138.06;;;17.13;43.20
22755;BME280;11544;42.020;23.094;2023-04-29T07:54:00;97144.97;;;15.20;45.64
22755;BME280;11544;42.020;23.094;2023-04-29T07:56:27;97137.53;;;16.21;45.75
22755;BME280;11544;42.020;23.094;2023-04-29T07:58:54;97125.13;;;16.96;44.65
22755;BME280;11544;42.020;23.094;2023-04-29T08:01:21;97125.19;;;17.50;46.87
22755;BME280;11544;42.020;23.094;2023-04-29T08:03:48;97125.66;;;17.97;45.04
22755;BME280;11544;42.020;23.094;2023-04-29T08:06:16;97121.44;;;17.94;44.64
22755;BME280;11544;42.020;23.094;2023-04-29T08:08:46;97114.19;;;18.11;43.73
22755;BME280;11544;42.020;23.094;2023-04-29T08:11:19;97110.66;;;17.97;43.12
22755;BME280;11544;42.020;23.094;2023-04-29T08:13:47;97118.81;;;17.67;43.31
22755;BME280;11544;42.020;23.094;2023-04-29T08:16:14;97103.28;;;17.63;42.54
22755;BME280;11544;42.020;23.094;2023-04-29T08:18:41;97099.47;;;17.12;43.90
22755;BME280;11544;42.020;23.094;2023-04-29T08:21:08;97099.41;;;17.95;44.26
22755;BME280;11544;42.020;23.094;2023-04-29T08:23:40;97101.53;;;18.67;43.99
22755;BME280;11544;42.020;23.094;2023-04-29T08:26:09;97095.41;;;18.67;40.07
22755;BME280;11544;42.020;23.094;2023-04-29T08:28:36;97099.34;;;17.83;42.73
22755;BME280;11544;42.020;23.094;2023-04-29T08:31:04;97094.84;;;17.58;42.80
22755;BME280;11544;42.020;23.094;2023-04-29T08:33:36;97083.59;;;18.47;41.14
22755;BME280;11544;42.020;23.094;2023-04-29T08:36:03;97095.94;;;18.20;41.70
22755;BME280;11544;42.020;23.094;2023-04-29T08:38:30;97089.41;;;18.65;39.05
22755;BME280;11544;42.020;23.094;2023-04-29T08:40:57;97082.53;;;18.49;39.15
22755;BME280;11544;42.020;23.094;2023-04-29T08:43:24;97089.09;;;18.31;35.46
22755;BME280;11544;42.020;23.094;2023-04-29T08:45:52;97081.47;;;18.52;36.96
22755;BME280;11544;42.020;23.094;2023-04-29T08:48:22;97081.78;;;18.47;36.57
22755;BME280;11544;42.020;23.094;2023-04-29T08:50:50;97081.41;;;18.40;35.52
22755;BME280;11544;42.020;23.094;2023-04-29T08:53:17;97083.81;;;18.69;34.09
22755;BME280;11544;42.020;23.094;2023-04-29T08:55:45;97074.53;;;18.25;36.52
22755;BME280;11544;42.020;23.094;2023-04-29T08:58:13;97066.91;;;18.08;37.32
22755;BME280;11544;42.020;23.094;2023-04-29T09:00:42;97069.34;;;18.62;35.39
22755;BME280;11544;42.020;23.094;2023-04-29T09:03:30;97066.38;;;18.54;38.30
22755;BME280;11544;42.020;23.094;2023-04-29T09:06:00;97066.38;;;18.92;37.06
22755;BME280;11544;42.020;23.094;2023-04-29T09:08:28;97070.50;;;18.83;36.79
22755;BME280;11544;42.020;23.094;2023-04-29T09:10:56;97064.81;;;18.38;38.11
22755;BME280;11544;42.020;23.094;2023-04-29T09:13:28;97069.66;;;18.45;38.47
22755;BME280;11544;42.020;23.094;2023-04-29T09:15:56;97055.94;;;18.39;40.34
22755;BME280;11544;42.020;23.094;2023-04-29T09:21:22;97056.56;;;17.92;40.76
22755;BME280;11544;42.020;23.094;2023-04-29T09:23:54;97059.06;;;17.81;40.48
22755;BME280;11544;42.020;23.094;2023-04-29T09:26:22;97056.66;;;17.23;41.30
22755;BME280;11544;42.020;23.094;2023-04-29T09:29:05;97045.59;;;17.98;39.80
22755;BME280;11544;42.020;23.094;2023-04-29T09:31:34;97049.81;;;18.01;39.83
22755;BME280;11544;42.020;23.094;2023-04-29T09:34:00;97043.34;;;17.79;39.25
22755;BME280;11544;42.020;23.094;2023-04-29T09:36:39;97031.47;;;17.86;40.89
22755;BME280;11544;42.020;23.094;2023-04-29T09:39:17;97037.34;;;17.90;41.06
22755;BME280;11544;42.020;23.094;2023-04-29T09:44:22;97022.25;;;17.79;40.98
22755;BME280;11544;42.020;23.094;2023-04-29T09:47:00;97028.97;;;17.70;39.89
22755;BME280;11544;42.020;23.094;2023-04-29T09:51:59;97022.28;;;17.92;37.88
22755;BME280;11544;42.020;23.094;2023-04-29T09:54:29;97015.81;;;18.60;37.20
22755;BME280;11544;42.020;23.094;2023-04-29T09:56:58;97022.91;;;17.83;34.88
22755;BME280;11544;42.020;23.094;2023-04-29T09:59:25;97016.81;;;18.33;38.10
22755;BME280;11544;42.020;23.094;2023-04-29T10:01:56;97007.09;;;17.95;38.16
22755;BME280;11544;42.020;23.094;2023-04-29T10:04:25;97001.63;;;17.98;38.95
22755;BME280;11544;42.020;23.094;2023-04-29T10:06:54;97001.63;;;17.98;39.73
22755;BME280;11544;42.020;23.094;2023-04-29T10:09:22;97000.88;;;17.96;40.52
22755;BME280;11544;42.020;23.094;2023-04-29T10:11:51;97010.47;;;17.85;41.93
22755;BME280;11544;42.020;23.094;2023-04-29T10:14:20;96999.38;;;17.92;42.65
22755;BME280;11544;42.020;23.094;2023-04-29T10:16:48;96996.25;;;18.00;41.32
22755;BME280;11544;42.020;23.094;2023-04-29T10:19:33;96997.28;;;17.97;40.97
22755;BME280;11544;42.020;23.094;2023-04-29T10:22:08;97000.97;;;17.95;41.05
22755;BME280;11544;42.020;23.094;2023-04-29T10:24:38;96998.34;;;17.42;40.46
22755;BME280;11544;42.020;23.094;2023-04-29T10:27:09;96994.44;;;17.88;38.97
22755;BME280;11544;42.020;23.094;2023-04-29T10:29:38;97000.66;;;17.87;38.21
22755;BME280;11544;42.020;23.094;2023-04-29T10:32:08;96999.44;;;17.65;40.34
22755;BME280;11544;42.020;23.094;2023-04-29T10:34:40;96992.84;;;17.45;40.14
22755;BME280;11544;42.020;23.094;2023-04-29T10:37:11;96998.25;;;17.56;40.30
22755;BME280;11544;42.020;23.094;2023-04-29T10:39:47;96993.00;;;17.56;38.89
22755;BME280;11544;42.020;23.094;2023-04-29T10:42:29;96995.25;;;17.35;37.34
22755;BME280;11544;42.020;23.094;2023-04-29T10:45:18;96992.25;;;17.54;37.47
22755;BME280;11544;42.020;23.094;2023-04-29T10:48:11;96992.22;;;17.82;39.97
22755;BME280;11544;42.020;23.094;2023-04-29T10:51:02;96992.94;;;18.09;34.61
22755;BME280;11544;42.020;23.094;2023-04-29T10:53:29;96985.78;;;17.33;34.57
22755;BME280;11544;42.020;23.094;2023-04-29T10:56:07;96992.16;;;17.69;33.77
22755;BME280;11544;42.020;23.094;2023-04-29T10:58:43;96989.75;;;17.78;35.93
22755;BME280;11544;42.020;23.094;2023-04-29T11:01:15;96983.56;;;18.18;33.27
22755;BME280;11544;42.020;23.094;2023-04-29T11:03:50;96979.31;;;18.28;34.63
22755;BME280;11544;42.020;23.094;2023-04-29T11:06:22;96968.47;;;18.20;37.77
22755;BME280;11544;42.020;23.094;2023-04-29T11:09:13;96977.94;;;18.48;36.29
22755;BME280;11544;42.020;23.094;2023-04-29T11:14:42;96978.50;;;17.89;35.16
22755;BME280;11544;42.020;23.094;2023-04-29T11:17:13;96984.06;;;17.72;35.21
22755;BME280;11544;42.020;23.094;2023-04-29T11:19:42;96981.44;;;17.97;35.28
22755;BME280;11544;42.020;23.094;2023-04-29T11:27:32;96972.28;;;18.29;35.36
22755;BME280;11544;42.020;23.094;2023-04-29T11:30:02;96965.97;;;18.55;34.32
22755;BME280;11544;42.020;23.094;2023-04-29T11:32:36;96971.16;;;18.57;34.45
22755;BME280;11544;42.020;23.094;2023-04-29T11:35:15;96974.38;;;18.36;34.96
22755;BME280;11544;42.020;23.094;2023-04-29T11:37:45;96975.31;;;18.23;34.01
22755;BME280;11544;42.020;23.094;2023-04-29T11:40:13;96975.59;;;17.67;33.20
22755;BME280;11544;42.020;23.094;2023-04-29T11:42:45;96974.03;;;18.28;33.32
22755;BME280;11544;42.020;23.094;2023-04-29T11:45:16;96968.69;;;18.17;33.69
22755;BME280;11544;42.020;23.094;2023-04-29T11:47:45;96968.38;;;18.58;34.71
22755;BME280;11544;42.020;23.094;2023-04-29T11:50:13;96972.75;;;18.47;33.84
22755;BME280;11544;42.020;23.094;2023-04-29T11:52:45;96958.81;;;19.18;33.63
22755;BME280;11544;42.020;23.094;2023-04-29T11:55:12;96967.69;;;18.93;35.10
22755;BME280;11544;42.020;23.094;2023-04-29T11:57:40;96963.41;;;19.03;34.88
22755;BME280;11544;42.020;23.094;2023-04-29T12:00:09;96968.84;;;18.89;32.93
22755;BME280;11544;42.020;23.094;2023-04-29T12:02:38;96963.97;;;18.96;34.46
22755;BME280;11544;42.020;23.094;2023-04-29T12:05:09;96952.63;;;19.07;34.17
22755;BME280;11544;42.020;23.094;2023-04-29T12:07:39;96951.41;;;19.35;33.83
22755;BME280;11544;42.020;23.094;2023-04-29T12:10:10;96958.19;;;18.91;34.96
22755;BME280;11544;42.020;23.094;2023-04-29T12:12:38;96945.63;;;19.30;31.56
22755;BME280;11544;42.020;23.094;2023-04-29T12:15:08;96946.88;;;19.13;32.90
22755;BME280;11544;42.020;23.094;2023-04-29T12:17:36;96956.63;;;18.88;33.66
22755;BME280;11544;42.020;23.094;2023-04-29T12:20:07;96943.59;;;19.33;33.75
22755;BME280;11544;42.020;23.094;2023-04-29T12:22:38;96950.38;;;18.89;33.26
22755;BME280;11544;42.020;23.094;2023-04-29T12:25:05;96942.06;;;19.42;32.34
22755;BME280;11544;42.020;23.094;2023-04-29T12:27:34;96934.31;;;18.92;33.85
22755;BME280;11544;42.020;23.094;2023-04-29T12:30:08;96935.72;;;19.09;32.71
22755;BME280;11544;42.020;23.094;2023-04-29T12:32:37;96927.63;;;19.35;31.90
22755;BME280;11544;42.020;23.094;2023-04-29T12:35:04;96934.78;;;19.21;32.90
22755;BME280;11544;42.020;23.094;2023-04-29T12:37:32;96938.75;;;18.55;32.44
22755;BME280;11544;42.020;23.094;2023-04-29T12:39:59;96927.44;;;19.14;32.33
22755;BME280;11544;42.020;23.094;2023-04-29T12:42:31;96930.63;;;19.41;32.94
22755;BME280;11544;42.020;23.094;2023-04-29T12:44:59;96927.66;;;19.11;34.18
22755;BME280;11544;42.020;23.094;2023-04-29T12:47:31;96922.19;;;19.25;34.69
22755;BME280;11544;42.020;23.094;2023-04-29T12:50:05;96919.53;;;19.25;35.22
22755;BME280;11544;42.020;23.094;2023-04-29T12:52:33;96922.91;;;19.27;34.17
22755;BME280;11544;42.020;23.094;2023-04-29T12:55:02;96927.72;;;18.98;33.22
22755;BME280;11544;42.020;23.094;2023-04-29T12:57:30;96927.16;;;18.81;34.73
22755;BME280;11544;42.020;23.094;2023-04-29T12:59:57;96914.69;;;19.08;33.20
22755;BME280;11544;42.020;23.094;2023-04-29T13:02:25;96921.13;;;19.39;33.75
22755;BME280;11544;42.020;23.094;2023-04-29T13:04:53;96920.50;;;19.24;33.97
22755;BME280;11544;42.020;23.094;2023-04-29T13:07:21;96933.19;;;18.83;34.20
22755;BME280;11544;42.020;23.094;2023-04-29T13:09:48;96927.97;;;18.58;34.59
22755;BME280;11544;42.020;23.094;2023-04-29T13:12:18;96927.69;;;18.50;36.39
22755;BME280;11544;42.020;23.094;2023-04-29T13:14:44;96930.38;;;18.61;36.54
22755;BME280;11544;42.020;23.094;2023-04-29T13:17:12;96924.97;;;18.38;36.98
22755;BME280;11544;42.020;23.094;2023-04-29T13:19:49;96921.78;;;18.70;37.72
22755;BME280;11544;42.020;23.094;2023-04-29T13:22:22;96925.19;;;18.35;38.07
22755;BME280;11544;42.020;23.094;2023-04-29T13:25:10;96917.63;;;18.18;37.85
22755;BME280;11544;42.020;23.094;2023-04-29T13:28:16;96919.84;;;18.11;38.93
22755;BME280;11544;42.020;23.094;2023-04-29T13:30:43;96919.13;;;17.96;39.52
22755;BME280;11544;42.020;23.094;2023-04-29T13:33:10;96920.16;;;18.19;39.62
22755;BME280;11544;42.020;23.094;2023-04-29T13:35:41;96912.09;;;18.21;39.43